Time;durP1;ratioP1;P1;durP2;ratioP2;P2;SDS_P1;SDS_P2;PMS_P1;PMS_P2;Temp;Humidity;BMP_temperature;BMP_pressure;BME280_temperature;BME280_humidity;BME280_pressure;Samples;Min_cycle;Max_cycle;Signal;HPM_P1;HPM_P2
2022/06/28 00:00:01;;;;;;;3.00;2.10;;;;;;;;;;5087672;28;20179;-49
2022/06/28 00:02:27;;;;;;;3.13;2.80;;;;;;;;;;5087094;28;20664;-50
2022/06/28 00:04:54;;;;;;;2.30;2.20;;;;;;;;;;5087404;28;20176;-50
2022/06/28 00:07:20;;;;;;;2.53;2.30;;;;;;;;;;5086410;28;20611;-49
2022/06/28 00:09:46;;;;;;;2.60;2.40;;;;;;;;;;5087510;28;20254;-49
2022/06/28 00:12:12;;;;;;;2.43;2.23;;;;;;;;;;5087345;28;20540;-49
2022/06/28 00:17:23;;;;;;;2.57;2.33;;;;;;;;;;5087143;28;20209;-50
2022/06/28 00:19:49;;;;;;;2.87;2.67;;;;;;;;;;5087350;28;20176;-49
2022/06/28 00:22:15;;;;;;;2.00;1.90;;;;;;;;;;5085958;28;20174;-49
2022/06/28 00:24:41;;;;;;;2.73;2.53;;;;;;;;;;5068396;28;20548;-49
2022/06/28 00:27:07;;;;;;;2.67;2.47;;;;;;;;;;5087049;28;20171;-49
2022/06/28 00:29:33;;;;;;;2.50;2.20;;;;;;;;;;5087479;28;20713;-49
2022/06/28 00:31:59;;;;;;;2.70;2.50;;;;;;;;;;5087065;28;20674;-49
2022/06/28 00:34:25;;;;;;;2.90;2.27;;;;;;;;;;5087016;28;20775;-49
2022/06/28 00:36:51;;;;;;;3.17;2.90;;;;;;;;;;5085505;28;20693;-49
2022/06/28 00:39:17;;;;;;;2.57;2.30;;;;;;;;;;5086575;28;20761;-48
2022/06/28 00:41:44;;;;;;;2.60;2.40;;;;;;;;;;5087117;28;20168;-49
2022/06/28 00:44:11;;;;;;;2.47;2.13;;;;;;;;;;5086846;28;20195;-49
2022/06/28 00:46:37;;;;;;;2.53;2.43;;;;;;;;;;5086565;28;20159;-48
2022/06/28 00:49:04;;;;;;;2.50;2.30;;;;;;;;;;5086732;28;20631;-49
2022/06/28 00:51:30;;;;;;;3.10;2.50;;;;;;;;;;5085982;28;20211;-48
2022/06/28 00:53:57;;;;;;;2.30;2.10;;;;;;;;;;5086419;28;20533;-48
2022/06/28 00:56:23;;;;;;;2.23;2.13;;;;;;;;;;5086815;28;20175;-49
2022/06/28 00:58:52;;;;;;;2.83;2.50;;;;;;;;;;5086584;28;20248;-50
2022/06/28 01:01:18;;;;;;;2.70;2.50;;;;;;;;;;5086055;28;20182;-50
2022/06/28 01:03:45;;;;;;;2.57;2.20;;;;;;;;;;5086774;28;20673;-49
2022/06/28 01:06:11;;;;;;;3.63;2.53;;;;;;;;;;5086224;28;20203;-49
2022/06/28 01:08:38;;;;;;;2.63;2.43;;;;;;;;;;5086299;28;20160;-49
2022/06/28 01:11:18;;;;;;;4.70;2.57;;;;;;;;;;5086743;28;20168;-49
2022/06/28 01:13:48;;;;;;;2.47;2.37;;;;;;;;;;5073057;28;20209;-49
2022/06/28 01:16:14;;;;;;;2.67;2.43;;;;;;;;;;5086548;28;20221;-48
2022/06/28 01:18:40;;;;;;;2.50;2.30;;;;;;;;;;5086284;28;20558;-49
2022/06/28 01:21:07;;;;;;;2.67;2.47;;;;;;;;;;5086218;28;20164;-50
2022/06/28 01:23:33;;;;;;;2.90;2.70;;;;;;;;;;5086046;28;20195;-49
2022/06/28 01:26:00;;;;;;;2.80;2.60;;;;;;;;;;5086678;28;20649;-49
2022/06/28 01:28:26;;;;;;;2.40;2.10;;;;;;;;;;5086387;28;20170;-48
2022/06/28 01:30:52;;;;;;;2.90;2.50;;;;;;;;;;5086803;28;20159;-48
2022/06/28 01:33:18;;;;;;;2.87;2.67;;;;;;;;;;5086274;28;20251;-48
2022/06/28 01:35:44;;;;;;;2.43;2.20;;;;;;;;;;5086888;28;20170;-49
2022/06/28 01:38:11;;;;;;;2.70;2.50;;;;;;;;;;5085282;28;20179;-49
2022/06/28 01:40:37;;;;;;;2.63;2.43;;;;;;;;;;5086644;28;20212;-48
2022/06/28 01:43:03;;;;;;;3.13;2.80;;;;;;;;;;5082666;28;20204;-49
2022/06/28 01:45:29;;;;;;;2.50;2.30;;;;;;;;;;5086672;28;20619;-49
2022/06/28 01:47:56;;;;;;;5.30;2.40;;;;;;;;;;5085730;28;20176;-49
2022/06/28 01:50:22;;;;;;;3.23;2.67;;;;;;;;;;5066241;28;20196;-49
2022/06/28 01:52:48;;;;;;;3.07;2.37;;;;;;;;;;5105196;28;20614;-49
2022/06/28 01:55:14;;;;;;;2.67;2.47;;;;;;;;;;5086998;28;20187;-48
2022/06/28 01:57:40;;;;;;;2.80;2.20;;;;;;;;;;5086171;28;20612;-48
2022/06/28 02:00:08;;;;;;;2.77;2.57;;;;;;;;;;5086773;28;20732;-48
2022/06/28 02:02:34;;;;;;;2.80;2.60;;;;;;;;;;5085634;28;20175;-48
2022/06/28 02:05:00;;;;;;;2.73;2.53;;;;;;;;;;5086342;28;20774;-49
2022/06/28 02:07:27;;;;;;;2.37;2.20;;;;;;;;;;5088399;28;20479;-48
2022/06/28 02:09:53;;;;;;;2.97;2.40;;;;;;;;;;5089554;28;20168;-49
2022/06/28 02:12:19;;;;;;;2.10;2.00;;;;;;;;;;5090079;28;20272;-48
2022/06/28 02:14:45;;;;;;;2.70;2.50;;;;;;;;;;5089726;28;20559;-49
2022/06/28 02:17:11;;;;;;;2.87;2.60;;;;;;;;;;5089687;28;20253;-49
2022/06/28 02:19:37;;;;;;;2.70;2.50;;;;;;;;;;5089589;28;20181;-50
2022/06/28 02:22:03;;;;;;;2.40;2.23;;;;;;;;;;5088357;28;20192;-49
2022/06/28 02:24:30;;;;;;;2.70;2.27;;;;;;;;;;5089602;28;20231;-49
2022/06/28 02:26:56;;;;;;;2.83;2.50;;;;;;;;;;5070842;28;20180;-49
2022/06/28 02:29:22;;;;;;;2.80;2.47;;;;;;;;;;5095020;28;20191;-48
2022/06/28 02:31:48;;;;;;;2.60;2.40;;;;;;;;;;5110496;28;20201;-49
2022/06/28 02:40:21;;;;;;;3.07;2.67;;;;;;;;;;5109534;28;20689;-50
2022/06/28 02:42:30;;;;;;;3.23;2.93;;;;;;;;;;5109120;28;20680;-49
2022/06/28 02:44:56;;;;;;;2.33;2.13;;;;;;;;;;5091444;28;20183;-49
2022/06/28 02:47:22;;;;;;;4.90;2.67;;;;;;;;;;5103107;28;20168;-49
2022/06/28 02:49:48;;;;;;;2.70;2.50;;;;;;;;;;5104388;28;20183;-49
2022/06/28 02:52:14;;;;;;;4.43;4.13;;;;;;;;;;5107837;28;20454;-49
2022/06/28 02:54:40;;;;;;;3.20;3.00;;;;;;;;;;5109482;28;20187;-49
2022/06/28 02:57:06;;;;;;;3.20;3.00;;;;;;;;;;5095364;28;20605;-50
2022/06/28 02:59:32;;;;;;;2.80;2.60;;;;;;;;;;5089075;28;20237;-50
2022/06/28 03:01:58;;;;;;;4.87;2.63;;;;;;;;;;5089207;28;20152;-49
2022/06/28 03:04:31;;;;;;;3.67;2.73;;;;;;;;;;5108570;28;20195;-49
2022/06/28 03:06:57;;;;;;;3.03;2.50;;;;;;;;;;5096059;28;20164;-48
2022/06/28 03:09:24;;;;;;;3.00;2.70;;;;;;;;;;5089362;28;20168;-48
2022/06/28 03:11:50;;;;;;;4.10;3.80;;;;;;;;;;5108239;28;20645;-48
2022/06/28 03:14:16;;;;;;;2.87;2.67;;;;;;;;;;5091521;28;20705;-49
2022/06/28 03:16:48;;;;;;;13.97;12.80;;;;;;;;;;5092457;28;20179;-49
2022/06/28 03:19:15;;;;;;;3.00;2.67;;;;;;;;;;5108729;28;20536;-48
2022/06/28 03:21:41;;;;;;;4.20;2.60;;;;;;;;;;5107879;28;20171;-48
2022/06/28 03:24:07;;;;;;;2.90;2.70;;;;;;;;;;5108328;28;20282;-48
2022/06/28 03:26:34;;;;;;;2.97;2.70;;;;;;;;;;5082867;28;20633;-48
2022/06/28 03:29:00;;;;;;;2.70;2.50;;;;;;;;;;5088575;28;20179;-48
2022/06/28 03:31:26;;;;;;;3.57;3.27;;;;;;;;;;5108974;28;20605;-49
2022/06/28 03:33:52;;;;;;;3.33;3.00;;;;;;;;;;5106430;28;20219;-48
2022/06/28 03:36:18;;;;;;;3.43;2.50;;;;;;;;;;5102632;28;20535;-48
2022/06/28 03:38:44;;;;;;;2.87;2.67;;;;;;;;;;5094910;28;20210;-48
2022/06/28 03:41:10;;;;;;;3.30;2.93;;;;;;;;;;5108748;28;20159;-48
2022/06/28 03:43:39;;;;;;;3.07;2.50;;;;;;;;;;5102326;28;20683;-48
2022/06/28 03:46:05;;;;;;;2.60;2.40;;;;;;;;;;5108776;28;20151;-48
2022/06/28 03:48:31;;;;;;;3.20;2.90;;;;;;;;;;5108270;28;20245;-48
2022/06/28 03:50:57;;;;;;;3.47;3.07;;;;;;;;;;5108535;28;20191;-49
2022/06/28 03:53:23;;;;;;;2.70;2.50;;;;;;;;;;5107350;28;20591;-47
2022/06/28 03:55:49;;;;;;;2.73;2.53;;;;;;;;;;5108915;28;20559;-47
2022/06/28 03:58:16;;;;;;;3.17;2.83;;;;;;;;;;5107832;28;20638;-49
2022/06/28 04:00:42;;;;;;;3.27;2.80;;;;;;;;;;5108751;28;20709;-48
2022/06/28 04:03:08;;;;;;;5.07;4.47;;;;;;;;;;5107754;28;20716;-47
2022/06/28 04:05:34;;;;;;;3.10;2.80;;;;;;;;;;5108687;28;20195;-48
2022/06/28 04:08:00;;;;;;;3.40;2.70;;;;;;;;;;5095159;28;20692;-48
2022/06/28 04:10:26;;;;;;;3.60;3.30;;;;;;;;;;5082128;28;20191;-48
2022/06/28 04:12:52;;;;;;;3.10;2.90;;;;;;;;;;5087445;28;20569;-48
2022/06/28 04:15:18;;;;;;;5.00;3.30;;;;;;;;;;5105460;28;20243;-48
2022/06/28 04:17:44;;;;;;;3.40;3.10;;;;;;;;;;5077156;28;20199;-48
2022/06/28 04:20:11;;;;;;;3.73;2.73;;;;;;;;;;5092190;28;20168;-48
2022/06/28 04:22:37;;;;;;;3.10;2.80;;;;;;;;;;5086499;28;20168;-47
2022/06/28 04:25:03;;;;;;;2.83;2.63;;;;;;;;;;5104684;28;20185;-48
2022/06/28 04:27:29;;;;;;;3.70;2.90;;;;;;;;;;5100273;28;20161;-49
2022/06/28 04:29:55;;;;;;;4.03;3.73;;;;;;;;;;5102952;28;20620;-48
2022/06/28 04:32:21;;;;;;;2.70;2.50;;;;;;;;;;5105247;28;20171;-48
2022/06/28 04:34:47;;;;;;;3.90;2.70;;;;;;;;;;5088401;28;20633;-48
2022/06/28 04:37:13;;;;;;;3.27;3.07;;;;;;;;;;5101490;28;20183;-50
2022/06/28 04:39:40;;;;;;;3.53;3.23;;;;;;;;;;5082554;28;20703;-47
2022/06/28 04:42:06;;;;;;;3.17;2.77;;;;;;;;;;5105083;28;20171;-47
2022/06/28 04:44:33;;;;;;;4.30;3.40;;;;;;;;;;5068949;28;20243;-48
2022/06/28 04:47:00;;;;;;;3.73;3.20;;;;;;;;;;5068701;28;20156;-48
2022/06/28 04:49:26;;;;;;;3.50;3.20;;;;;;;;;;5086880;28;20176;-48
2022/06/28 04:51:52;;;;;;;3.80;3.40;;;;;;;;;;5085690;28;20186;-48
2022/06/28 04:54:18;;;;;;;3.93;3.23;;;;;;;;;;5098003;28;20309;-48
2022/06/28 04:56:44;;;;;;;3.30;2.93;;;;;;;;;;5106978;28;20603;-49
2022/06/28 04:59:10;;;;;;;4.03;3.50;;;;;;;;;;5086250;28;20254;-48
2022/06/28 05:01:37;;;;;;;4.37;3.57;;;;;;;;;;5086233;28;20232;-48
2022/06/28 05:04:03;;;;;;;4.00;3.63;;;;;;;;;;5086584;28;20207;-47
2022/06/28 05:06:30;;;;;;;4.10;3.80;;;;;;;;;;5084532;28;20626;-48
2022/06/28 05:08:56;;;;;;;4.20;3.57;;;;;;;;;;5075258;28;20168;-47
2022/06/28 05:11:23;;;;;;;5.27;3.80;;;;;;;;;;5107314;28;20161;-47
2022/06/28 05:13:49;;;;;;;3.70;3.40;;;;;;;;;;5090921;28;20187;-48
2022/06/28 05:16:15;;;;;;;4.20;3.77;;;;;;;;;;5100717;28;20325;-47
2022/06/28 05:18:41;;;;;;;5.60;4.07;;;;;;;;;;5087511;28;20731;-47
2022/06/28 05:21:08;;;;;;;4.73;4.10;;;;;;;;;;5085996;28;20226;-48
2022/06/28 05:23:34;;;;;;;3.83;3.47;;;;;;;;;;5090168;28;20669;-48
2022/06/28 05:26:00;;;;;;;5.47;4.47;;;;;;;;;;5107430;28;20160;-48
2022/06/28 05:28:26;;;;;;;4.10;3.73;;;;;;;;;;5097979;28;20641;-48
2022/06/28 05:30:53;;;;;;;5.33;3.83;;;;;;;;;;5107416;28;20327;-49
2022/06/28 05:33:20;;;;;;;6.63;4.43;;;;;;;;;;5097410;28;20970;-47
2022/06/28 05:35:46;;;;;;;8.17;4.53;;;;;;;;;;5086449;28;20166;-48
2022/06/28 05:38:12;;;;;;;9.10;4.07;;;;;;;;;;5074662;28;20169;-48
2022/06/28 05:40:38;;;;;;;4.30;3.50;;;;;;;;;;5068123;28;20187;-48
2022/06/28 05:43:04;;;;;;;4.63;3.70;;;;;;;;;;5067959;28;20219;-48
2022/06/28 05:45:30;;;;;;;4.00;3.60;;;;;;;;;;5068330;28;20173;-49
2022/06/28 05:47:56;;;;;;;4.77;4.37;;;;;;;;;;5069367;28;20318;-49
2022/06/28 05:50:23;;;;;;;3.77;3.43;;;;;;;;;;5071212;28;20221;-48
2022/06/28 05:52:50;;;;;;;4.13;3.73;;;;;;;;;;5087927;28;20630;-48
2022/06/28 05:55:16;;;;;;;4.30;3.90;;;;;;;;;;5088818;28;20183;-49
2022/06/28 05:57:48;;;;;;;3.77;3.47;;;;;;;;;;5087089;28;20541;-49
2022/06/28 06:00:15;;;;;;;5.07;3.80;;;;;;;;;;5050771;28;20627;-49
2022/06/28 06:02:41;;;;;;;6.17;4.10;;;;;;;;;;5067521;28;20160;-49
2022/06/28 06:05:08;;;;;;;4.10;3.73;;;;;;;;;;5068721;28;20255;-48
2022/06/28 06:07:34;;;;;;;4.93;3.80;;;;;;;;;;5067024;28;20199;-49
2022/06/28 06:10:00;;;;;;;4.77;3.53;;;;;;;;;;5067898;28;20634;-49
2022/06/28 06:12:27;;;;;;;4.27;3.83;;;;;;;;;;5067565;28;20884;-47
2022/06/28 06:14:53;;;;;;;4.93;4.27;;;;;;;;;;5084513;28;20167;-48
2022/06/28 06:17:19;;;;;;;4.60;4.13;;;;;;;;;;5071629;28;20180;-48
2022/06/28 06:19:45;;;;;;;5.57;3.50;;;;;;;;;;5051590;28;20252;-48
2022/06/28 06:22:11;;;;;;;3.57;3.00;;;;;;;;;;5069071;28;20169;-48
2022/06/28 06:24:37;;;;;;;3.60;3.17;;;;;;;;;;5069577;28;20200;-48
2022/06/28 06:27:03;;;;;;;3.40;3.10;;;;;;;;;;5069853;28;20245;-49
2022/06/28 06:29:29;;;;;;;3.70;3.30;;;;;;;;;;5069486;28;20180;-49
2022/06/28 06:31:57;;;;;;;7.03;4.17;;;;;;;;;;5069726;28;20235;-49
2022/06/28 06:34:23;;;;;;;7.10;3.47;;;;;;;;;;5102209;28;20870;-48
2022/06/28 06:36:50;;;;;;;3.43;3.13;;;;;;;;;;5109116;28;20174;-48
2022/06/28 06:39:16;;;;;;;4.50;3.30;;;;;;;;;;5099223;28;20186;-48
2022/06/28 06:41:42;;;;;;;5.40;3.70;;;;;;;;;;5089428;28;20594;-48
2022/06/28 06:44:09;;;;;;;4.50;3.93;;;;;;;;;;5101934;28;20208;-48
2022/06/28 06:46:36;;;;;;;5.27;3.83;;;;;;;;;;5070871;28;20168;-48
2022/06/28 06:49:03;;;;;;;3.77;3.37;;;;;;;;;;5099889;28;20172;-48
2022/06/28 06:51:30;;;;;;;4.60;3.67;;;;;;;;;;5107001;28;20187;-48
2022/06/28 06:53:57;;;;;;;3.67;3.30;;;;;;;;;;5109661;28;20222;-48
2022/06/28 06:56:23;;;;;;;5.67;3.30;;;;;;;;;;5091054;28;20183;-49
2022/06/28 06:58:50;;;;;;;4.87;3.30;;;;;;;;;;5090896;28;20185;-49
2022/06/28 07:01:16;;;;;;;3.50;2.80;;;;;;;;;;5108913;28;20239;-49
2022/06/28 07:03:44;;;;;;;5.07;3.10;;;;;;;;;;5105732;28;20482;-48
2022/06/28 07:06:14;;;;;;;3.17;2.93;;;;;;;;;;5062369;28;20198;-48
2022/06/28 07:08:40;;;;;;;5.17;3.70;;;;;;;;;;5090838;28;20623;-48
2022/06/28 07:11:07;;;;;;;4.23;3.10;;;;;;;;;;5071198;28;20157;-48
2022/06/28 07:13:33;;;;;;;3.30;3.00;;;;;;;;;;5070320;28;20585;-49
2022/06/28 07:16:01;;;;;;;4.13;3.07;;;;;;;;;;5109890;28;20159;-49
2022/06/28 07:18:28;;;;;;;5.23;2.97;;;;;;;;;;5108142;28;20670;-49
2022/06/28 07:20:55;;;;;;;6.63;3.37;;;;;;;;;;5109680;28;20159;-49
2022/06/28 07:23:21;;;;;;;3.90;3.03;;;;;;;;;;5107574;28;20908;-48
2022/06/28 07:25:47;;;;;;;5.93;3.97;;;;;;;;;;5091190;28;20770;-48
2022/06/28 07:28:13;;;;;;;5.67;2.97;;;;;;;;;;5104786;28;20826;-47
2022/06/28 07:30:47;;;;;;;3.63;2.87;;;;;;;;;;5089593;28;20660;-47
2022/06/28 07:33:14;;;;;;;3.30;3.00;;;;;;;;;;5083160;28;20231;-50
2022/06/28 07:35:40;;;;;;;4.77;3.13;;;;;;;;;;5069539;28;20312;-47
2022/06/28 07:38:06;;;;;;;3.73;2.90;;;;;;;;;;5067060;28;20564;-48
2022/06/28 07:40:33;;;;;;;5.30;2.73;;;;;;;;;;5068834;28;20182;-47
2022/06/28 07:42:59;;;;;;;3.53;2.63;;;;;;;;;;5067861;28;20536;-48
2022/06/28 07:45:25;;;;;;;6.57;3.10;;;;;;;;;;5068271;28;20614;-48
2022/06/28 07:47:51;;;;;;;2.60;2.40;;;;;;;;;;5068059;28;20529;-48
2022/06/28 07:53:03;;;;;;;6.13;2.87;;;;;;;;;;5067249;28;20202;-48
2022/06/28 07:55:30;;;;;;;3.63;2.70;;;;;;;;;;5067621;28;20203;-47
2022/06/28 07:57:56;;;;;;;6.17;2.83;;;;;;;;;;5068392;28;20584;-48
2022/06/28 08:00:23;;;;;;;6.40;2.93;;;;;;;;;;5067777;28;20168;-47
2022/06/28 08:02:49;;;;;;;4.87;2.83;;;;;;;;;;5067689;28;20510;-47
2022/06/28 08:05:15;;;;;;;4.57;2.50;;;;;;;;;;5068236;28;20173;-47
2022/06/28 08:07:42;;;;;;;2.47;2.23;;;;;;;;;;5066418;28;20177;-49
2022/06/28 08:10:09;;;;;;;8.43;2.57;;;;;;;;;;5067800;28;20190;-48
2022/06/28 08:12:35;;;;;;;6.10;3.00;;;;;;;;;;5067492;28;20540;-48
2022/06/28 08:15:02;;;;;;;4.57;2.50;;;;;;;;;;5049873;28;20185;-49
2022/06/28 08:17:28;;;;;;;3.37;2.27;;;;;;;;;;5049458;28;20177;-49
2022/06/28 08:20:01;;;;;;;3.17;2.47;;;;;;;;;;5067445;28;20168;-48
2022/06/28 08:22:34;;;;;;;3.20;2.30;;;;;;;;;;5065507;28;20673;-49
2022/06/28 08:25:00;;;;;;;4.47;2.40;;;;;;;;;;5050128;28;20200;-49
2022/06/28 08:27:26;;;;;;;5.70;2.97;;;;;;;;;;5067216;28;20180;-49
2022/06/28 08:29:53;;;;;;;2.30;2.10;;;;;;;;;;5044852;28;20173;-49
2022/06/28 08:32:20;;;;;;;2.40;2.20;;;;;;;;;;5067169;28;20252;-49
2022/06/28 08:34:47;;;;;;;3.43;2.27;;;;;;;;;;5100285;28;20234;-50
2022/06/28 08:37:14;;;;;;;5.03;1.77;;;;;;;;;;5106438;28;20648;-50
2022/06/28 08:39:40;;;;;;;4.90;2.70;;;;;;;;;;5106751;28;20210;-49
2022/06/28 08:42:06;;;;;;;2.60;2.30;;;;;;;;;;5106469;28;20739;-49
2022/06/28 08:44:34;;;;;;;5.13;2.53;;;;;;;;;;5087063;28;20611;-50
2022/06/28 08:47:01;;;;;;;3.80;2.13;;;;;;;;;;5069483;28;20182;-50
2022/06/28 08:49:33;;;;;;;4.43;2.00;;;;;;;;;;5076568;28;20183;-50
2022/06/28 08:51:59;;;;;;;3.57;1.90;;;;;;;;;;5106739;28;20248;-50
2022/06/28 08:54:27;;;;;;;2.40;2.20;;;;;;;;;;5105096;28;20167;-50
2022/06/28 08:56:53;;;;;;;2.50;2.20;;;;;;;;;;5087439;28;20180;-50
2022/06/28 08:59:22;;;;;;;2.40;2.20;;;;;;;;;;5086122;28;20266;-50
2022/06/28 09:01:49;;;;;;;3.73;2.20;;;;;;;;;;5106462;28;20262;-50
2022/06/28 09:04:15;;;;;;;2.67;1.93;;;;;;;;;;5075405;28;20614;-49
2022/06/28 09:06:42;;;;;;;3.40;1.93;;;;;;;;;;5085115;28;20626;-49
2022/06/28 09:09:08;;;;;;;3.63;2.30;;;;;;;;;;5095120;28;20163;-49
2022/06/28 09:11:43;;;;;;;2.77;2.00;;;;;;;;;;5068589;28;20177;-50
2022/06/28 09:14:29;;;;;;;2.10;1.90;;;;;;;;;;5086601;28;20617;-50
2022/06/28 09:16:56;;;;;;;3.60;2.20;;;;;;;;;;5069965;28;20184;-49
2022/06/28 09:19:36;;;;;;;4.47;2.00;;;;;;;;;;5067672;28;20608;-50
2022/06/28 09:22:03;;;;;;;2.20;1.90;;;;;;;;;;5085097;28;20171;-50
2022/06/28 09:24:29;;;;;;;2.67;2.43;;;;;;;;;;5098465;28;20203;-51
2022/06/28 09:27:00;;;;;;;2.88;2.20;;;;;;;;;;5106993;28;20860;-50
2022/06/28 09:29:26;;;;;;;2.70;2.33;;;;;;;;;;5092038;28;20169;-50
2022/06/28 09:31:52;;;;;;;3.60;2.27;;;;;;;;;;5087172;28;20175;-50
2022/06/28 09:34:18;;;;;;;2.50;1.87;;;;;;;;;;5092311;28;20282;-52
2022/06/28 09:36:58;;;;;;;2.60;2.37;;;;;;;;;;5086143;28;20216;-50
2022/06/28 09:39:28;;;;;;;4.33;1.90;;;;;;;;;;5098154;28;20180;-48
2022/06/28 09:41:56;;;;;;;5.33;2.13;;;;;;;;;;5107143;28;20576;-48
2022/06/28 09:44:26;;;;;;;2.27;1.90;;;;;;;;;;5102894;28;20271;-48
2022/06/28 09:46:54;;;;;;;4.27;2.43;;;;;;;;;;5107150;28;20582;-48
2022/06/28 09:49:20;;;;;;;4.77;2.30;;;;;;;;;;5087817;28;20182;-47
2022/06/28 09:51:47;;;;;;;4.00;2.07;;;;;;;;;;5105261;28;20195;-49
2022/06/28 09:54:14;;;;;;;3.97;2.30;;;;;;;;;;5106768;28;20187;-48
2022/06/28 09:56:44;;;;;;;5.73;2.53;;;;;;;;;;5088247;28;20521;-48
2022/06/28 09:59:11;;;;;;;3.23;2.10;;;;;;;;;;5104850;28;20729;-49
2022/06/28 10:01:37;;;;;;;2.60;2.10;;;;;;;;;;5094820;28;20540;-49
2022/06/28 10:04:04;;;;;;;2.23;2.10;;;;;;;;;;5106065;28;20540;-49
2022/06/28 10:06:30;;;;;;;2.13;1.93;;;;;;;;;;5105683;28;20157;-49
2022/06/28 10:08:57;;;;;;;2.07;1.90;;;;;;;;;;5106173;28;20169;-48
2022/06/28 10:11:23;;;;;;;3.00;2.17;;;;;;;;;;5107152;28;20250;-49
2022/06/28 10:16:46;;;;;;;2.50;2.30;;;;;;;;;;5105851;28;20172;-49
2022/06/28 10:19:12;;;;;;;8.90;2.13;;;;;;;;;;5087875;28;20171;-50
2022/06/28 10:21:46;;;;;;;3.20;2.20;;;;;;;;;;5085802;28;20591;-49
2022/06/28 10:24:13;;;;;;;2.07;1.87;;;;;;;;;;5070826;28;20208;-49
2022/06/28 10:26:43;;;;;;;2.47;2.27;;;;;;;;;;5088599;28;20578;-48
2022/06/28 10:29:10;;;;;;;2.33;2.10;;;;;;;;;;5090707;28;20185;-48
2022/06/28 10:31:38;;;;;;;3.57;2.20;;;;;;;;;;5092238;28;20186;-49
2022/06/28 10:34:10;;;;;;;4.43;2.37;;;;;;;;;;5107123;28;20654;-48
2022/06/28 10:36:44;;;;;;;2.83;2.10;;;;;;;;;;5090573;28;20187;-48
2022/06/28 10:39:15;;;;;;;2.30;2.00;;;;;;;;;;5091149;28;20189;-48
2022/06/28 10:41:41;;;;;;;2.87;2.27;;;;;;;;;;5110052;28;20166;-47
2022/06/28 10:44:09;;;;;;;2.30;2.10;;;;;;;;;;5093567;28;20205;-48
2022/06/28 10:46:35;;;;;;;3.37;2.17;;;;;;;;;;5107649;28;20180;-49
2022/06/28 10:49:06;;;;;;;2.10;1.90;;;;;;;;;;5054464;28;20635;-48
2022/06/28 10:51:33;;;;;;;2.10;1.87;;;;;;;;;;5108349;28;20276;-49
2022/06/28 10:54:01;;;;;;;2.43;1.80;;;;;;;;;;5109416;28;20628;-49
2022/06/28 10:56:27;;;;;;;2.87;1.97;;;;;;;;;;5109700;28;20172;-49
2022/06/28 10:58:54;;;;;;;3.23;2.10;;;;;;;;;;5078631;28;20285;-49
2022/06/28 11:01:41;;;;;;;2.57;1.67;;;;;;;;;;5089506;28;20250;-49
2022/06/28 11:04:11;;;;;;;3.07;2.10;;;;;;;;;;5108526;28;20308;-50
2022/06/28 11:06:42;;;;;;;3.03;1.83;;;;;;;;;;5054878;28;20196;-49
2022/06/28 11:09:28;;;;;;;3.63;2.20;;;;;;;;;;5097989;28;20605;-49
2022/06/28 11:12:10;;;;;;;3.53;2.10;;;;;;;;;;5055148;28;20249;-50
2022/06/28 11:14:46;;;;;;;4.80;2.13;;;;;;;;;;5098274;28;20570;-49
2022/06/28 11:17:17;;;;;;;2.00;1.80;;;;;;;;;;5086404;28;20266;-49
2022/06/28 11:19:50;;;;;;;2.03;1.80;;;;;;;;;;5053840;28;20183;-49
2022/06/28 11:22:37;;;;;;;2.43;2.00;;;;;;;;;;5082620;28;20182;-50
2022/06/28 11:25:04;;;;;;;3.57;1.90;;;;;;;;;;5076071;28;20690;-49
2022/06/28 11:27:32;;;;;;;3.07;2.17;;;;;;;;;;5069171;28;20221;-48
2022/06/28 11:30:04;;;;;;;3.77;1.90;;;;;;;;;;5070466;28;20183;-48
2022/06/28 11:32:30;;;;;;;3.00;1.90;;;;;;;;;;5069663;28;20269;-49
2022/06/28 11:35:16;;;;;;;2.27;2.07;;;;;;;;;;5103604;27;20250;-48
2022/06/28 11:37:47;;;;;;;2.23;1.90;;;;;;;;;;5106842;28;20163;-48
2022/06/28 11:40:15;;;;;;;2.97;2.10;;;;;;;;;;5106663;28;20182;-49
2022/06/28 11:42:41;;;;;;;3.43;1.70;;;;;;;;;;5101712;28;20287;-49
2022/06/28 11:45:07;;;;;;;1.80;1.70;;;;;;;;;;5104756;28;20712;-51
2022/06/28 11:47:34;;;;;;;2.80;1.90;;;;;;;;;;5108563;28;20175;-50
2022/06/28 11:50:18;;;;;;;2.07;1.87;;;;;;;;;;5107873;28;20622;-50
2022/06/28 11:52:49;;;;;;;2.40;1.90;;;;;;;;;;5106535;28;20258;-49
2022/06/28 11:55:15;;;;;;;2.93;2.00;;;;;;;;;;5074901;28;20275;-49
2022/06/28 11:57:44;;;;;;;3.80;2.00;;;;;;;;;;5106406;28;20183;-50
2022/06/28 12:00:10;;;;;;;3.60;2.00;;;;;;;;;;5107230;28;20175;-51
2022/06/28 12:02:39;;;;;;;3.20;1.97;;;;;;;;;;5107497;28;20206;-50
2022/06/28 12:05:05;;;;;;;2.47;2.10;;;;;;;;;;5107596;28;20207;-50
2022/06/28 12:07:37;;;;;;;2.50;2.20;;;;;;;;;;5106893;28;20213;-50
2022/06/28 12:10:03;;;;;;;2.07;1.97;;;;;;;;;;5108311;28;20624;-50
2022/06/28 12:12:30;;;;;;;2.43;2.23;;;;;;;;;;5107545;28;20287;-50
2022/06/28 12:14:57;;;;;;;3.30;1.87;;;;;;;;;;5089089;28;20738;-49
2022/06/28 12:17:23;;;;;;;2.33;2.00;;;;;;;;;;5106668;28;20230;-50
2022/06/28 12:19:50;;;;;;;2.53;2.10;;;;;;;;;;5080502;28;20173;-50
2022/06/28 12:22:23;;;;;;;4.50;3.43;;;;;;;;;;5067556;28;20183;-50
2022/06/28 12:24:53;;;;;;;2.13;1.90;;;;;;;;;;5098867;28;20210;-50
2022/06/28 12:27:27;;;;;;;2.27;2.10;;;;;;;;;;5105694;28;20176;-50
2022/06/28 12:29:54;;;;;;;3.60;2.17;;;;;;;;;;5099530;28;20180;-51
2022/06/28 12:32:20;;;;;;;2.03;1.83;;;;;;;;;;5087593;28;20149;-51
2022/06/28 12:34:47;;;;;;;2.57;2.37;;;;;;;;;;5086653;28;20220;-50
2022/06/28 12:37:13;;;;;;;3.67;2.00;;;;;;;;;;5086109;28;20620;-50
2022/06/28 12:39:40;;;;;;;4.03;2.40;;;;;;;;;;5085546;28;20259;-50
2022/06/28 12:42:07;;;;;;;2.53;2.33;;;;;;;;;;5056009;28;20197;-49
2022/06/28 12:44:33;;;;;;;3.87;2.37;;;;;;;;;;5059400;28;20209;-51
2022/06/28 12:47:00;;;;;;;2.10;1.90;;;;;;;;;;5065489;28;20556;-51
2022/06/28 12:49:26;;;;;;;2.27;1.90;;;;;;;;;;5065748;28;20664;-51
2022/06/28 12:51:53;;;;;;;2.10;1.90;;;;;;;;;;5066112;28;20243;-48
2022/06/28 12:54:19;;;;;;;3.87;2.37;;;;;;;;;;5066016;28;20169;-49
2022/06/28 12:56:45;;;;;;;2.20;2.00;;;;;;;;;;5066205;28;20165;-50
2022/06/28 12:59:11;;;;;;;3.60;2.10;;;;;;;;;;5066427;28;20179;-49
2022/06/28 13:01:37;;;;;;;2.67;2.47;;;;;;;;;;5085324;28;20181;-50
2022/06/28 13:04:04;;;;;;;3.80;2.30;;;;;;;;;;5084863;28;20311;-49
2022/06/28 13:06:30;;;;;;;3.47;2.20;;;;;;;;;;5066010;28;20244;-51
2022/06/28 13:08:57;;;;;;;4.37;2.20;;;;;;;;;;5073447;28;20169;-51
2022/06/28 13:11:24;;;;;;;2.50;2.30;;;;;;;;;;5055715;28;20587;-51
2022/06/28 13:13:50;;;;;;;2.67;1.90;;;;;;;;;;5047903;28;20190;-51
2022/06/28 13:16:17;;;;;;;4.27;2.87;;;;;;;;;;5064628;28;20272;-51
2022/06/28 13:18:43;;;;;;;2.77;2.07;;;;;;;;;;5066794;28;20178;-52
2022/06/28 13:21:10;;;;;;;2.63;2.40;;;;;;;;;;5065373;28;20268;-53
2022/06/28 13:23:37;;;;;;;2.43;2.23;;;;;;;;;;5052417;28;20239;-53
2022/06/28 13:26:04;;;;;;;2.60;2.27;;;;;;;;;;5076278;28;20649;-51
2022/06/28 13:28:30;;;;;;;4.17;2.40;;;;;;;;;;5047150;28;20446;-50
2022/06/28 13:30:57;;;;;;;2.00;1.90;;;;;;;;;;5066237;28;20188;-51
2022/06/28 13:33:23;;;;;;;5.47;2.17;;;;;;;;;;5030866;28;20181;-51
2022/06/28 13:35:49;;;;;;;2.13;1.90;;;;;;;;;;5051603;28;20567;-50
2022/06/28 13:38:15;;;;;;;3.57;2.10;;;;;;;;;;5064556;28;20174;-51
2022/06/28 13:40:43;;;;;;;4.33;2.50;;;;;;;;;;5065181;28;20189;-51
2022/06/28 13:45:54;;;;;;;3.33;2.60;;;;;;;;;;5066282;28;20171;-51
2022/06/28 13:48:21;;;;;;;3.27;2.40;;;;;;;;;;5065839;28;20615;-52
2022/06/28 13:50:47;;;;;;;4.07;2.50;;;;;;;;;;5047345;28;20541;-50
2022/06/28 13:53:14;;;;;;;4.17;2.60;;;;;;;;;;5064105;28;20160;-52
2022/06/28 13:55:42;;;;;;;3.50;2.73;;;;;;;;;;5054025;28;20266;-52
2022/06/28 13:58:09;;;;;;;2.93;2.40;;;;;;;;;;5059698;28;20519;-51
2022/06/28 14:00:35;;;;;;;4.13;2.63;;;;;;;;;;5066222;28;20175;-51
2022/06/28 14:03:02;;;;;;;2.80;2.50;;;;;;;;;;5051267;28;20180;-52
2022/06/28 14:05:28;;;;;;;6.97;3.00;;;;;;;;;;5069508;28;20182;-52
2022/06/28 14:08:01;;;;;;;4.90;3.00;;;;;;;;;;5068911;28;20558;-52
2022/06/28 14:10:27;;;;;;;4.40;2.80;;;;;;;;;;5068814;28;20586;-52
2022/06/28 14:13:01;;;;;;;2.87;2.67;;;;;;;;;;5068359;28;20175;-52
2022/06/28 14:15:28;;;;;;;2.83;2.63;;;;;;;;;;5069020;28;20722;-52
2022/06/28 14:17:54;;;;;;;5.40;2.80;;;;;;;;;;5069389;28;20534;-52
2022/06/28 14:20:22;;;;;;;5.43;4.93;;;;;;;;;;5069944;28;20684;-52
2022/06/28 14:22:50;;;;;;;2.67;2.43;;;;;;;;;;5042075;28;20517;-51
2022/06/28 14:25:16;;;;;;;4.80;3.13;;;;;;;;;;5069031;28;20212;-53
2022/06/28 14:27:42;;;;;;;4.03;2.83;;;;;;;;;;5069185;28;20244;-52
2022/06/28 14:30:12;;;;;;;2.80;2.27;;;;;;;;;;5051141;28;20208;-52
2022/06/28 14:32:45;;;;;;;2.73;2.37;;;;;;;;;;5069191;28;20201;-52
2022/06/28 14:35:24;;;;;;;3.73;2.30;;;;;;;;;;5068314;28;20633;-52
2022/06/28 14:37:50;;;;;;;5.67;2.30;;;;;;;;;;5067666;28;20250;-52
2022/06/28 14:40:16;;;;;;;3.93;2.20;;;;;;;;;;5087257;28;20177;-52
2022/06/28 14:42:42;;;;;;;3.50;2.10;;;;;;;;;;5087441;28;20214;-52
2022/06/28 14:45:09;;;;;;;3.78;2.55;;;;;;;;;;5049064;28;20450;-52
2022/06/28 14:47:37;;;;;;;3.03;2.83;;;;;;;;;;5067270;28;20179;-52
2022/06/28 14:50:04;;;;;;;4.80;2.23;;;;;;;;;;5066711;28;20230;-52
2022/06/28 14:52:34;;;;;;;2.27;2.13;;;;;;;;;;5047804;28;20185;-52
2022/06/28 14:55:01;;;;;;;4.90;2.63;;;;;;;;;;5068811;28;20550;-51
2022/06/28 14:57:28;;;;;;;4.03;2.70;;;;;;;;;;5069467;28;20165;-51
2022/06/28 14:59:54;;;;;;;3.47;2.40;;;;;;;;;;5035797;28;20271;-51